sensor_id;sensor_type;location;lat;lon;timestamp;P1;durP1;ratioP1;P2;durP2;ratioP2
11572;SDS011;5842;52.426;4.886;2022-12-05T00:01:18;37.17;;;18.40;;
11572;SDS011;5842;52.426;4.886;2022-12-05T00:03:50;36.37;;;18.87;;
11572;SDS011;5842;52.426;4.886;2022-12-05T00:06:19;34.40;;;18.70;;
11572;SDS011;5842;52.426;4.886;2022-12-05T00:08:47;36.73;;;18.57;;
11572;SDS011;5842;52.426;4.886;2022-12-05T00:11:15;36.67;;;18.63;;
11572;SDS011;5842;52.426;4.886;2022-12-05T00:13:44;34.97;;;18.83;;
11572;SDS011;5842;52.426;4.886;2022-12-05T00:16:13;35.17;;;18.90;;
11572;SDS011;5842;52.426;4.886;2022-12-05T00:18:42;35.07;;;18.17;;
11572;SDS011;5842;52.426;4.886;2022-12-05T00:21:13;35.67;;;18.90;;
11572;SDS011;5842;52.426;4.886;2022-12-05T00:23:42;35.43;;;18.90;;
11572;SDS011;5842;52.426;4.886;2022-12-05T00:26:09;35.50;;;17.53;;
11572;SDS011;5842;52.426;4.886;2022-12-05T00:28:37;36.10;;;19.33;;
11572;SDS011;5842;52.426;4.886;2022-12-05T00:31:05;37.33;;;19.43;;
11572;SDS011;5842;52.426;4.886;2022-12-05T00:33:34;37.90;;;19.10;;
11572;SDS011;5842;52.426;4.886;2022-12-05T00:36:04;37.20;;;19.50;;
11572;SDS011;5842;52.426;4.886;2022-12-05T00:38:34;32.27;;;17.93;;
11572;SDS011;5842;52.426;4.886;2022-12-05T00:41:03;41.87;;;19.57;;
11572;SDS011;5842;52.426;4.886;2022-12-05T00:43:30;34.77;;;18.50;;
11572;SDS011;5842;52.426;4.886;2022-12-05T00:45:59;37.40;;;18.17;;
11572;SDS011;5842;52.426;4.886;2022-12-05T00:48:28;33.23;;;17.37;;
11572;SDS011;5842;52.426;4.886;2022-12-05T00:51:04;33.87;;;18.50;;
11572;SDS011;5842;52.426;4.886;2022-12-05T00:53:35;33.87;;;18.00;;
11572;SDS011;5842;52.426;4.886;2022-12-05T00:56:03;34.73;;;18.07;;
11572;SDS011;5842;52.426;4.886;2022-12-05T00:58:32;33.37;;;16.77;;
11572;SDS011;5842;52.426;4.886;2022-12-05T01:01:04;33.20;;;17.50;;
11572;SDS011;5842;52.426;4.886;2022-12-05T01:03:32;32.43;;;17.37;;
11572;SDS011;5842;52.426;4.886;2022-12-05T01:05:59;34.40;;;17.90;;
11572;SDS011;5842;52.426;4.886;2022-12-05T01:08:27;32.53;;;16.67;;
11572;SDS011;5842;52.426;4.886;2022-12-05T01:10:56;32.97;;;17.47;;
11572;SDS011;5842;52.426;4.886;2022-12-05T01:13:24;31.53;;;17.10;;
11572;SDS011;5842;52.426;4.886;2022-12-05T01:15:52;32.83;;;17.53;;
11572;SDS011;5842;52.426;4.886;2022-12-05T01:18:20;29.37;;;16.03;;
11572;SDS011;5842;52.426;4.886;2022-12-05T01:20:48;28.90;;;16.10;;
11572;SDS011;5842;52.426;4.886;2022-12-05T01:23:15;30.27;;;16.67;;
11572;SDS011;5842;52.426;4.886;2022-12-05T01:25:43;31.17;;;17.13;;
11572;SDS011;5842;52.426;4.886;2022-12-05T01:28:16;29.90;;;16.23;;
11572;SDS011;5842;52.426;4.886;2022-12-05T01:30:44;29.90;;;15.73;;
11572;SDS011;5842;52.426;4.886;2022-12-05T01:33:13;27.83;;;15.80;;
11572;SDS011;5842;52.426;4.886;2022-12-05T01:35:41;30.43;;;16.07;;
11572;SDS011;5842;52.426;4.886;2022-12-05T01:38:09;30.67;;;15.57;;
11572;SDS011;5842;52.426;4.886;2022-12-05T01:40:37;27.33;;;15.47;;
11572;SDS011;5842;52.426;4.886;2022-12-05T01:43:08;28.57;;;15.43;;
11572;SDS011;5842;52.426;4.886;2022-12-05T01:45:42;29.93;;;15.30;;
11572;SDS011;5842;52.426;4.886;2022-12-05T01:48:12;29.37;;;14.97;;
11572;SDS011;5842;52.426;4.886;2022-12-05T01:50:42;28.27;;;15.50;;
11572;SDS011;5842;52.426;4.886;2022-12-05T01:53:10;28.47;;;15.13;;
11572;SDS011;5842;52.426;4.886;2022-12-05T01:55:39;30.97;;;16.37;;
11572;SDS011;5842;52.426;4.886;2022-12-05T01:58:06;28.67;;;15.20;;
11572;SDS011;5842;52.426;4.886;2022-12-05T02:00:36;28.17;;;14.97;;
11572;SDS011;5842;52.426;4.886;2022-12-05T02:03:07;28.13;;;15.23;;
11572;SDS011;5842;52.426;4.886;2022-12-05T02:05:37;31.50;;;16.03;;
11572;SDS011;5842;52.426;4.886;2022-12-05T02:08:07;33.17;;;16.60;;
11572;SDS011;5842;52.426;4.886;2022-12-05T02:10:36;29.17;;;16.40;;
11572;SDS011;5842;52.426;4.886;2022-12-05T02:13:08;28.17;;;14.93;;
11572;SDS011;5842;52.426;4.886;2022-12-05T02:15:44;28.20;;;15.03;;
11572;SDS011;5842;52.426;4.886;2022-12-05T02:18:23;26.07;;;14.37;;
11572;SDS011;5842;52.426;4.886;2022-12-05T02:21:03;26.97;;;15.00;;
11572;SDS011;5842;52.426;4.886;2022-12-05T02:27:06;26.73;;;14.63;;
11572;SDS011;5842;52.426;4.886;2022-12-05T02:30:08;27.90;;;15.40;;
11572;SDS011;5842;52.426;4.886;2022-12-05T02:32:46;28.03;;;15.63;;
11572;SDS011;5842;52.426;4.886;2022-12-05T02:35:24;28.03;;;14.90;;
11572;SDS011;5842;52.426;4.886;2022-12-05T02:37:59;28.20;;;14.70;;
11572;SDS011;5842;52.426;4.886;2022-12-05T02:40:36;29.80;;;15.60;;
11572;SDS011;5842;52.426;4.886;2022-12-05T02:43:10;32.57;;;16.37;;
11572;SDS011;5842;52.426;4.886;2022-12-05T02:45:44;28.23;;;15.20;;
11572;SDS011;5842;52.426;4.886;2022-12-05T02:48:14;30.17;;;16.20;;
11572;SDS011;5842;52.426;4.886;2022-12-05T02:50:43;30.50;;;15.60;;
11572;SDS011;5842;52.426;4.886;2022-12-05T02:53:14;29.03;;;16.93;;
11572;SDS011;5842;52.426;4.886;2022-12-05T02:55:43;32.23;;;16.23;;
11572;SDS011;5842;52.426;4.886;2022-12-05T02:58:13;31.33;;;16.80;;
11572;SDS011;5842;52.426;4.886;2022-12-05T03:00:47;28.13;;;15.60;;
11572;SDS011;5842;52.426;4.886;2022-12-05T03:03:16;27.27;;;15.43;;
11572;SDS011;5842;52.426;4.886;2022-12-05T03:05:46;31.90;;;17.07;;
11572;SDS011;5842;52.426;4.886;2022-12-05T03:08:20;27.87;;;15.60;;
11572;SDS011;5842;52.426;4.886;2022-12-05T03:10:50;27.73;;;15.67;;
11572;SDS011;5842;52.426;4.886;2022-12-05T03:13:19;30.90;;;16.00;;
11572;SDS011;5842;52.426;4.886;2022-12-05T03:15:53;28.87;;;15.30;;
11572;SDS011;5842;52.426;4.886;2022-12-05T03:18:24;28.63;;;15.27;;
11572;SDS011;5842;52.426;4.886;2022-12-05T03:20:56;30.10;;;16.17;;
11572;SDS011;5842;52.426;4.886;2022-12-05T03:23:27;29.73;;;15.03;;
11572;SDS011;5842;52.426;4.886;2022-12-05T03:26:02;27.83;;;15.40;;
11572;SDS011;5842;52.426;4.886;2022-12-05T03:28:38;32.37;;;16.47;;
11572;SDS011;5842;52.426;4.886;2022-12-05T03:31:17;31.43;;;15.93;;
11572;SDS011;5842;52.426;4.886;2022-12-05T03:33:48;29.30;;;15.33;;
11572;SDS011;5842;52.426;4.886;2022-12-05T03:36:20;29.33;;;15.20;;
11572;SDS011;5842;52.426;4.886;2022-12-05T03:38:53;28.27;;;15.60;;
11572;SDS011;5842;52.426;4.886;2022-12-05T03:41:29;29.43;;;15.87;;
11572;SDS011;5842;52.426;4.886;2022-12-05T03:44:01;31.73;;;16.70;;
11572;SDS011;5842;52.426;4.886;2022-12-05T03:46:36;30.27;;;16.20;;
11572;SDS011;5842;52.426;4.886;2022-12-05T03:49:06;32.93;;;17.13;;
11572;SDS011;5842;52.426;4.886;2022-12-05T03:51:40;33.13;;;16.83;;
11572;SDS011;5842;52.426;4.886;2022-12-05T03:54:12;30.83;;;17.03;;
11572;SDS011;5842;52.426;4.886;2022-12-05T03:56:45;32.47;;;17.03;;
11572;SDS011;5842;52.426;4.886;2022-12-05T03:59:17;34.40;;;16.80;;
11572;SDS011;5842;52.426;4.886;2022-12-05T04:01:51;31.37;;;17.30;;
11572;SDS011;5842;52.426;4.886;2022-12-05T04:04:21;32.77;;;17.77;;
11572;SDS011;5842;52.426;4.886;2022-12-05T04:06:54;35.53;;;18.33;;
11572;SDS011;5842;52.426;4.886;2022-12-05T04:09:25;37.73;;;18.23;;
11572;SDS011;5842;52.426;4.886;2022-12-05T04:11:56;34.63;;;18.30;;
11572;SDS011;5842;52.426;4.886;2022-12-05T04:14:28;38.77;;;19.40;;
11572;SDS011;5842;52.426;4.886;2022-12-05T04:17:01;36.43;;;19.03;;
11572;SDS011;5842;52.426;4.886;2022-12-05T04:19:32;38.47;;;18.93;;
11572;SDS011;5842;52.426;4.886;2022-12-05T04:22:22;39.00;;;19.53;;
11572;SDS011;5842;52.426;4.886;2022-12-05T04:24:50;42.27;;;20.37;;
11572;SDS011;5842;52.426;4.886;2022-12-05T04:27:37;37.23;;;18.77;;
11572;SDS011;5842;52.426;4.886;2022-12-05T04:30:09;39.77;;;18.97;;
11572;SDS011;5842;52.426;4.886;2022-12-05T04:32:42;41.57;;;19.67;;
11572;SDS011;5842;52.426;4.886;2022-12-05T04:35:12;38.23;;;19.20;;
11572;SDS011;5842;52.426;4.886;2022-12-05T04:37:48;41.90;;;20.13;;
11572;SDS011;5842;52.426;4.886;2022-12-05T04:40:19;43.23;;;20.80;;
11572;SDS011;5842;52.426;4.886;2022-12-05T04:42:51;42.90;;;20.70;;
11572;SDS011;5842;52.426;4.886;2022-12-05T04:45:20;42.93;;;21.43;;
11572;SDS011;5842;52.426;4.886;2022-12-05T04:47:52;40.93;;;20.03;;
11572;SDS011;5842;52.426;4.886;2022-12-05T04:50:25;40.43;;;19.83;;
11572;SDS011;5842;52.426;4.886;2022-12-05T04:52:55;44.30;;;21.10;;
11572;SDS011;5842;52.426;4.886;2022-12-05T04:55:24;40.33;;;19.33;;
11572;SDS011;5842;52.426;4.886;2022-12-05T04:57:55;39.70;;;20.03;;
11572;SDS011;5842;52.426;4.886;2022-12-05T05:00:28;40.73;;;19.40;;
11572;SDS011;5842;52.426;4.886;2022-12-05T05:02:59;42.90;;;20.43;;
11572;SDS011;5842;52.426;4.886;2022-12-05T05:05:32;35.53;;;19.53;;
11572;SDS011;5842;52.426;4.886;2022-12-05T05:08:01;37.50;;;19.97;;
11572;SDS011;5842;52.426;4.886;2022-12-05T05:10:31;36.17;;;18.27;;
11572;SDS011;5842;52.426;4.886;2022-12-05T05:13:03;38.70;;;19.80;;
11572;SDS011;5842;52.426;4.886;2022-12-05T05:15:30;35.00;;;18.27;;
11572;SDS011;5842;52.426;4.886;2022-12-05T05:17:58;38.30;;;18.97;;
11572;SDS011;5842;52.426;4.886;2022-12-05T05:20:26;35.10;;;18.27;;
11572;SDS011;5842;52.426;4.886;2022-12-05T05:22:54;33.63;;;17.63;;
11572;SDS011;5842;52.426;4.886;2022-12-05T05:25:22;32.17;;;17.60;;
11572;SDS011;5842;52.426;4.886;2022-12-05T05:27:51;34.93;;;17.90;;
11572;SDS011;5842;52.426;4.886;2022-12-05T05:30:21;31.87;;;18.00;;
11572;SDS011;5842;52.426;4.886;2022-12-05T05:32:48;33.93;;;17.90;;
11572;SDS011;5842;52.426;4.886;2022-12-05T05:35:17;34.37;;;19.30;;
11572;SDS011;5842;52.426;4.886;2022-12-05T05:37:45;34.33;;;18.87;;
11572;SDS011;5842;52.426;4.886;2022-12-05T05:40:13;34.47;;;18.17;;
11572;SDS011;5842;52.426;4.886;2022-12-05T05:42:41;27.53;;;16.90;;
11572;SDS011;5842;52.426;4.886;2022-12-05T05:45:09;28.23;;;16.50;;
11572;SDS011;5842;52.426;4.886;2022-12-05T05:47:38;29.80;;;17.13;;
11572;SDS011;5842;52.426;4.886;2022-12-05T05:50:05;27.40;;;16.90;;
11572;SDS011;5842;52.426;4.886;2022-12-05T05:52:35;29.73;;;16.70;;
11572;SDS011;5842;52.426;4.886;2022-12-05T05:55:04;25.00;;;15.80;;
11572;SDS011;5842;52.426;4.886;2022-12-05T05:57:32;28.53;;;15.73;;
11572;SDS011;5842;52.426;4.886;2022-12-05T06:00:00;26.43;;;14.97;;
11572;SDS011;5842;52.426;4.886;2022-12-05T06:02:30;25.67;;;14.97;;
11572;SDS011;5842;52.426;4.886;2022-12-05T06:04:58;24.00;;;15.07;;
11572;SDS011;5842;52.426;4.886;2022-12-05T06:07:26;23.33;;;14.47;;
11572;SDS011;5842;52.426;4.886;2022-12-05T06:09:55;25.50;;;14.47;;
11572;SDS011;5842;52.426;4.886;2022-12-05T06:12:22;24.00;;;14.80;;
11572;SDS011;5842;52.426;4.886;2022-12-05T06:14:49;24.23;;;14.07;;
11572;SDS011;5842;52.426;4.886;2022-12-05T06:17:17;25.57;;;14.23;;
11572;SDS011;5842;52.426;4.886;2022-12-05T06:19:44;22.60;;;13.53;;
11572;SDS011;5842;52.426;4.886;2022-12-05T06:22:11;24.10;;;13.63;;
11572;SDS011;5842;52.426;4.886;2022-12-05T06:24:38;21.47;;;12.93;;
11572;SDS011;5842;52.426;4.886;2022-12-05T06:27:07;21.63;;;13.07;;
11572;SDS011;5842;52.426;4.886;2022-12-05T06:29:34;21.43;;;13.43;;
11572;SDS011;5842;52.426;4.886;2022-12-05T06:32:01;19.03;;;12.23;;
11572;SDS011;5842;52.426;4.886;2022-12-05T06:34:28;20.73;;;12.67;;
11572;SDS011;5842;52.426;4.886;2022-12-05T06:36:56;21.53;;;12.63;;
11572;SDS011;5842;52.426;4.886;2022-12-05T06:39:24;20.67;;;12.20;;
11572;SDS011;5842;52.426;4.886;2022-12-05T06:41:52;19.27;;;11.60;;
11572;SDS011;5842;52.426;4.886;2022-12-05T06:44:20;21.90;;;11.87;;
11572;SDS011;5842;52.426;4.886;2022-12-05T06:46:50;17.90;;;11.43;;
11572;SDS011;5842;52.426;4.886;2022-12-05T06:49:18;19.20;;;11.23;;
11572;SDS011;5842;52.426;4.886;2022-12-05T06:51:45;16.90;;;11.13;;
11572;SDS011;5842;52.426;4.886;2022-12-05T06:54:13;18.23;;;10.90;;
11572;SDS011;5842;52.426;4.886;2022-12-05T06:56:40;16.97;;;11.07;;
11572;SDS011;5842;52.426;4.886;2022-12-05T06:59:07;15.07;;;10.50;;
11572;SDS011;5842;52.426;4.886;2022-12-05T07:01:36;18.03;;;10.73;;
11572;SDS011;5842;52.426;4.886;2022-12-05T07:04:06;15.00;;;9.90;;
11572;SDS011;5842;52.426;4.886;2022-12-05T07:06:36;14.23;;;9.37;;
11572;SDS011;5842;52.426;4.886;2022-12-05T07:09:04;16.10;;;10.30;;
11572;SDS011;5842;52.426;4.886;2022-12-05T07:11:31;16.20;;;10.00;;
11572;SDS011;5842;52.426;4.886;2022-12-05T07:13:58;16.10;;;9.87;;
11572;SDS011;5842;52.426;4.886;2022-12-05T07:16:26;13.27;;;9.20;;
11572;SDS011;5842;52.426;4.886;2022-12-05T07:18:54;15.93;;;9.23;;
11572;SDS011;5842;52.426;4.886;2022-12-05T07:38:42;13.80;;;8.50;;
11572;SDS011;5842;52.426;4.886;2022-12-05T07:41:10;14.67;;;8.97;;
11572;SDS011;5842;52.426;4.886;2022-12-05T07:43:47;14.53;;;9.17;;
11572;SDS011;5842;52.426;4.886;2022-12-05T07:46:16;14.53;;;9.17;;
11572;SDS011;5842;52.426;4.886;2022-12-05T07:48:43;13.57;;;8.63;;
11572;SDS011;5842;52.426;4.886;2022-12-05T07:51:10;13.37;;;8.40;;
11572;SDS011;5842;52.426;4.886;2022-12-05T07:53:38;15.57;;;9.07;;
11572;SDS011;5842;52.426;4.886;2022-12-05T07:56:10;13.97;;;8.80;;
11572;SDS011;5842;52.426;4.886;2022-12-05T07:58:41;12.23;;;8.20;;
11572;SDS011;5842;52.426;4.886;2022-12-05T08:01:09;13.83;;;8.50;;
11572;SDS011;5842;52.426;4.886;2022-12-05T08:03:38;12.70;;;8.60;;
11572;SDS011;5842;52.426;4.886;2022-12-05T08:06:07;13.17;;;8.00;;
11572;SDS011;5842;52.426;4.886;2022-12-05T08:08:39;11.33;;;7.87;;
11572;SDS011;5842;52.426;4.886;2022-12-05T08:11:07;13.17;;;7.97;;
11572;SDS011;5842;52.426;4.886;2022-12-05T08:13:37;15.13;;;8.90;;
11572;SDS011;5842;52.426;4.886;2022-12-05T08:16:05;13.40;;;8.33;;
11572;SDS011;5842;52.426;4.886;2022-12-05T08:18:34;11.50;;;8.30;;
11572;SDS011;5842;52.426;4.886;2022-12-05T08:21:03;13.60;;;8.53;;
11572;SDS011;5842;52.426;4.886;2022-12-05T08:23:31;12.10;;;7.80;;
11572;SDS011;5842;52.426;4.886;2022-12-05T08:26:02;15.80;;;8.80;;
11572;SDS011;5842;52.426;4.886;2022-12-05T08:28:32;12.33;;;8.47;;
11572;SDS011;5842;52.426;4.886;2022-12-05T08:31:03;12.33;;;8.33;;
11572;SDS011;5842;52.426;4.886;2022-12-05T08:33:31;13.73;;;8.70;;
11572;SDS011;5842;52.426;4.886;2022-12-05T08:35:59;11.90;;;8.53;;
11572;SDS011;5842;52.426;4.886;2022-12-05T08:38:30;16.17;;;8.50;;
11572;SDS011;5842;52.426;4.886;2022-12-05T08:40:59;13.00;;;8.10;;
11572;SDS011;5842;52.426;4.886;2022-12-05T08:43:26;11.87;;;7.97;;
11572;SDS011;5842;52.426;4.886;2022-12-05T08:45:56;13.90;;;8.40;;
11572;SDS011;5842;52.426;4.886;2022-12-05T08:48:24;13.30;;;8.50;;
11572;SDS011;5842;52.426;4.886;2022-12-05T08:50:52;13.23;;;8.53;;
11572;SDS011;5842;52.426;4.886;2022-12-05T08:53:19;13.30;;;8.20;;
11572;SDS011;5842;52.426;4.886;2022-12-05T08:55:47;12.17;;;7.77;;
11572;SDS011;5842;52.426;4.886;2022-12-05T08:58:14;14.13;;;8.40;;
11572;SDS011;5842;52.426;4.886;2022-12-05T09:00:42;13.47;;;8.67;;
11572;SDS011;5842;52.426;4.886;2022-12-05T09:03:11;13.63;;;7.93;;
11572;SDS011;5842;52.426;4.886;2022-12-05T09:05:38;14.40;;;8.93;;
11572;SDS011;5842;52.426;4.886;2022-12-05T09:08:06;13.53;;;8.63;;
11572;SDS011;5842;52.426;4.886;2022-12-05T09:10:33;12.77;;;8.30;;
11572;SDS011;5842;52.426;4.886;2022-12-05T09:13:00;12.67;;;8.07;;
11572;SDS011;5842;52.426;4.886;2022-12-05T09:15:27;12.43;;;8.43;;
11572;SDS011;5842;52.426;4.886;2022-12-05T09:17:57;12.73;;;8.30;;
11572;SDS011;5842;52.426;4.886;2022-12-05T09:20:26;12.53;;;8.53;;
11572;SDS011;5842;52.426;4.886;2022-12-05T09:22:53;12.40;;;8.10;;
11572;SDS011;5842;52.426;4.886;2022-12-05T09:25:21;14.33;;;7.80;;
11572;SDS011;5842;52.426;4.886;2022-12-05T09:27:48;13.63;;;8.53;;
11572;SDS011;5842;52.426;4.886;2022-12-05T09:30:15;12.07;;;7.97;;
11572;SDS011;5842;52.426;4.886;2022-12-05T09:32:43;14.03;;;8.10;;
11572;SDS011;5842;52.426;4.886;2022-12-05T09:35:10;13.93;;;8.00;;
11572;SDS011;5842;52.426;4.886;2022-12-05T09:37:39;13.07;;;8.37;;
11572;SDS011;5842;52.426;4.886;2022-12-05T09:40:09;11.27;;;6.93;;
11572;SDS011;5842;52.426;4.886;2022-12-05T09:42:48;11.87;;;7.50;;
11572;SDS011;5842;52.426;4.886;2022-12-05T09:45:27;12.67;;;7.70;;
11572;SDS011;5842;52.426;4.886;2022-12-05T09:48:04;10.77;;;7.50;;
11572;SDS011;5842;52.426;4.886;2022-12-05T09:50:39;11.27;;;7.67;;
11572;SDS011;5842;52.426;4.886;2022-12-05T09:53:12;12.47;;;7.77;;
11572;SDS011;5842;52.426;4.886;2022-12-05T09:55:50;12.50;;;7.80;;
11572;SDS011;5842;52.426;4.886;2022-12-05T09:58:25;11.33;;;7.03;;
11572;SDS011;5842;52.426;4.886;2022-12-05T10:01:00;13.40;;;7.47;;
11572;SDS011;5842;52.426;4.886;2022-12-05T10:03:39;10.57;;;7.57;;
11572;SDS011;5842;52.426;4.886;2022-12-05T10:06:10;12.47;;;7.40;;
11572;SDS011;5842;52.426;4.886;2022-12-05T10:08:46;11.20;;;7.30;;
11572;SDS011;5842;52.426;4.886;2022-12-05T10:11:32;12.13;;;7.33;;
11572;SDS011;5842;52.426;4.886;2022-12-05T10:14:04;13.00;;;7.73;;
11572;SDS011;5842;52.426;4.886;2022-12-05T10:16:37;11.73;;;7.60;;
11572;SDS011;5842;52.426;4.886;2022-12-05T10:19:10;13.20;;;7.43;;
11572;SDS011;5842;52.426;4.886;2022-12-05T10:21:43;12.70;;;7.90;;
11572;SDS011;5842;52.426;4.886;2022-12-05T10:24:19;12.93;;;7.53;;
11572;SDS011;5842;52.426;4.886;2022-12-05T10:26:55;13.57;;;8.10;;
11572;SDS011;5842;52.426;4.886;2022-12-05T10:29:27;13.97;;;8.63;;
11572;SDS011;5842;52.426;4.886;2022-12-05T10:31:59;14.37;;;8.90;;
11572;SDS011;5842;52.426;4.886;2022-12-05T10:34:33;14.10;;;8.20;;
11572;SDS011;5842;52.426;4.886;2022-12-05T10:37:08;17.30;;;9.03;;
11572;SDS011;5842;52.426;4.886;2022-12-05T10:39:38;15.50;;;9.03;;
11572;SDS011;5842;52.426;4.886;2022-12-05T10:42:06;16.33;;;9.10;;
11572;SDS011;5842;52.426;4.886;2022-12-05T10:44:39;12.60;;;8.23;;
11572;SDS011;5842;52.426;4.886;2022-12-05T10:47:07;14.07;;;8.53;;
11572;SDS011;5842;52.426;4.886;2022-12-05T10:49:35;12.87;;;7.70;;
11572;SDS011;5842;52.426;4.886;2022-12-05T10:52:03;12.30;;;7.77;;
11572;SDS011;5842;52.426;4.886;2022-12-05T10:54:41;15.40;;;7.83;;
11572;SDS011;5842;52.426;4.886;2022-12-05T10:57:20;13.43;;;7.37;;
11572;SDS011;5842;52.426;4.886;2022-12-05T10:59:49;12.80;;;7.60;;
11572;SDS011;5842;52.426;4.886;2022-12-05T11:02:21;12.60;;;7.10;;
11572;SDS011;5842;52.426;4.886;2022-12-05T11:04:51;14.70;;;7.37;;
11572;SDS011;5842;52.426;4.886;2022-12-05T11:07:29;12.33;;;6.97;;
11572;SDS011;5842;52.426;4.886;2022-12-05T11:09:59;11.90;;;6.73;;
11572;SDS011;5842;52.426;4.886;2022-12-05T11:12:34;11.07;;;6.40;;
11572;SDS011;5842;52.426;4.886;2022-12-05T11:15:05;13.10;;;6.63;;
11572;SDS011;5842;52.426;4.886;2022-12-05T11:17:46;12.07;;;6.37;;
11572;SDS011;5842;52.426;4.886;2022-12-05T11:23:14;13.70;;;7.30;;
11572;SDS011;5842;52.426;4.886;2022-12-05T11:29:21;13.27;;;6.93;;
11572;SDS011;5842;52.426;4.886;2022-12-05T11:31:55;13.60;;;7.17;;
11572;SDS011;5842;52.426;4.886;2022-12-05T11:34:23;14.10;;;7.53;;
11572;SDS011;5842;52.426;4.886;2022-12-05T11:36:59;12.40;;;7.83;;
11572;SDS011;5842;52.426;4.886;2022-12-05T11:39:30;15.27;;;8.27;;
11572;SDS011;5842;52.426;4.886;2022-12-05T11:44:57;15.67;;;8.03;;
11572;SDS011;5842;52.426;4.886;2022-12-05T11:47:53;12.33;;;7.00;;
11572;SDS011;5842;52.426;4.886;2022-12-05T11:50:45;14.43;;;7.57;;
11572;SDS011;5842;52.426;4.886;2022-12-05T11:53:31;14.53;;;7.70;;
11572;SDS011;5842;52.426;4.886;2022-12-05T11:56:25;13.83;;;7.73;;
11572;SDS011;5842;52.426;4.886;2022-12-05T11:59:08;17.57;;;7.70;;
11572;SDS011;5842;52.426;4.886;2022-12-05T12:01:50;16.60;;;8.47;;
11572;SDS011;5842;52.426;4.886;2022-12-05T12:07:25;13.73;;;8.10;;
11572;SDS011;5842;52.426;4.886;2022-12-05T12:10:07;14.23;;;7.77;;
11572;SDS011;5842;52.426;4.886;2022-12-05T12:12:44;12.50;;;7.63;;
11572;SDS011;5842;52.426;4.886;2022-12-05T12:15:29;15.90;;;8.30;;
11572;SDS011;5842;52.426;4.886;2022-12-05T12:18:15;15.07;;;7.90;;
11572;SDS011;5842;52.426;4.886;2022-12-05T12:20:56;18.50;;;8.33;;
11572;SDS011;5842;52.426;4.886;2022-12-05T12:23:37;12.60;;;7.67;;
11572;SDS011;5842;52.426;4.886;2022-12-05T12:26:12;15.50;;;8.53;;
11572;SDS011;5842;52.426;4.886;2022-12-05T12:28:44;15.33;;;7.80;;
11572;SDS011;5842;52.426;4.886;2022-12-05T12:31:25;16.00;;;8.23;;
11572;SDS011;5842;52.426;4.886;2022-12-05T12:34:13;16.03;;;8.37;;
11572;SDS011;5842;52.426;4.886;2022-12-05T12:37:04;16.67;;;8.57;;
11572;SDS011;5842;52.426;4.886;2022-12-05T12:39:41;17.17;;;8.30;;
11572;SDS011;5842;52.426;4.886;2022-12-05T12:42:19;14.00;;;7.87;;
11572;SDS011;5842;52.426;4.886;2022-12-05T12:47:49;16.20;;;8.33;;
11572;SDS011;5842;52.426;4.886;2022-12-05T12:50:31;14.43;;;8.13;;
11572;SDS011;5842;52.426;4.886;2022-12-05T12:53:07;16.20;;;8.20;;
11572;SDS011;5842;52.426;4.886;2022-12-05T12:55:55;14.93;;;8.20;;
11572;SDS011;5842;52.426;4.886;2022-12-05T12:58:33;12.93;;;7.77;;
11572;SDS011;5842;52.426;4.886;2022-12-05T13:01:15;15.53;;;7.53;;
11572;SDS011;5842;52.426;4.886;2022-12-05T13:03:50;16.60;;;7.87;;
11572;SDS011;5842;52.426;4.886;2022-12-05T13:06:28;13.17;;;7.77;;
11572;SDS011;5842;52.426;4.886;2022-12-05T13:09:01;15.93;;;7.43;;
11572;SDS011;5842;52.426;4.886;2022-12-05T13:11:33;14.53;;;7.03;;
11572;SDS011;5842;52.426;4.886;2022-12-05T13:14:06;16.63;;;7.80;;
11572;SDS011;5842;52.426;4.886;2022-12-05T13:16:38;14.17;;;7.27;;
11572;SDS011;5842;52.426;4.886;2022-12-05T13:19:12;15.60;;;7.23;;
11572;SDS011;5842;52.426;4.886;2022-12-05T13:21:50;14.00;;;7.43;;
11572;SDS011;5842;52.426;4.886;2022-12-05T13:24:18;11.17;;;7.00;;
11572;SDS011;5842;52.426;4.886;2022-12-05T13:26:50;11.97;;;7.23;;
11572;SDS011;5842;52.426;4.886;2022-12-05T13:29:18;14.40;;;7.30;;
11572;SDS011;5842;52.426;4.886;2022-12-05T13:31:49;11.53;;;7.30;;
11572;SDS011;5842;52.426;4.886;2022-12-05T13:37:18;12.50;;;7.47;;
11572;SDS011;5842;52.426;4.886;2022-12-05T13:40:05;15.37;;;7.53;;
11572;SDS011;5842;52.426;4.886;2022-12-05T13:43:06;13.30;;;7.37;;
11572;SDS011;5842;52.426;4.886;2022-12-05T13:45:34;15.00;;;7.57;;
11572;SDS011;5842;52.426;4.886;2022-12-05T13:48:06;14.30;;;7.33;;
11572;SDS011;5842;52.426;4.886;2022-12-05T13:50:45;13.03;;;7.40;;
11572;SDS011;5842;52.426;4.886;2022-12-05T13:56:06;11.60;;;6.67;;
11572;SDS011;5842;52.426;4.886;2022-12-05T13:58:52;10.47;;;6.80;;
11572;SDS011;5842;52.426;4.886;2022-12-05T14:04:42;15.23;;;6.70;;
11572;SDS011;5842;52.426;4.886;2022-12-05T14:10:04;15.67;;;7.60;;
11572;SDS011;5842;52.426;4.886;2022-12-05T14:12:44;13.90;;;7.20;;
11572;SDS011;5842;52.426;4.886;2022-12-05T14:15:22;12.83;;;7.30;;
11572;SDS011;5842;52.426;4.886;2022-12-05T14:18:05;13.63;;;7.40;;
11572;SDS011;5842;52.426;4.886;2022-12-05T14:20:46;13.67;;;7.37;;
11572;SDS011;5842;52.426;4.886;2022-12-05T14:23:27;14.90;;;7.50;;
11572;SDS011;5842;52.426;4.886;2022-12-05T14:26:19;12.93;;;7.17;;
11572;SDS011;5842;52.426;4.886;2022-12-05T14:29:09;14.17;;;7.40;;
11572;SDS011;5842;52.426;4.886;2022-12-05T14:31:49;13.17;;;7.13;;
11572;SDS011;5842;52.426;4.886;2022-12-05T14:34:29;15.00;;;7.63;;
11572;SDS011;5842;52.426;4.886;2022-12-05T14:37:00;14.43;;;6.83;;
11572;SDS011;5842;52.426;4.886;2022-12-05T14:39:30;16.27;;;7.83;;
11572;SDS011;5842;52.426;4.886;2022-12-05T14:42:01;14.73;;;6.67;;
11572;SDS011;5842;52.426;4.886;2022-12-05T14:44:34;11.50;;;6.50;;
11572;SDS011;5842;52.426;4.886;2022-12-05T14:47:02;11.77;;;7.07;;
11572;SDS011;5842;52.426;4.886;2022-12-05T14:49:32;13.50;;;6.60;;
11572;SDS011;5842;52.426;4.886;2022-12-05T14:52:01;12.77;;;7.07;;
11572;SDS011;5842;52.426;4.886;2022-12-05T14:54:35;13.23;;;6.47;;
11572;SDS011;5842;52.426;4.886;2022-12-05T14:57:05;9.20;;;6.17;;
11572;SDS011;5842;52.426;4.886;2022-12-05T14:59:42;12.13;;;6.60;;
11572;SDS011;5842;52.426;4.886;2022-12-05T15:02:14;11.17;;;7.00;;
11572;SDS011;5842;52.426;4.886;2022-12-05T15:04:49;10.80;;;6.60;;
11572;SDS011;5842;52.426;4.886;2022-12-05T15:07:25;14.53;;;6.20;;
11572;SDS011;5842;52.426;4.886;2022-12-05T15:09:58;11.73;;;6.47;;
11572;SDS011;5842;52.426;4.886;2022-12-05T15:12:32;13.80;;;6.83;;
11572;SDS011;5842;52.426;4.886;2022-12-05T15:15:06;9.53;;;6.10;;
11572;SDS011;5842;52.426;4.886;2022-12-05T15:17:42;11.93;;;6.33;;
11572;SDS011;5842;52.426;4.886;2022-12-05T15:20:19;9.40;;;5.60;;
11572;SDS011;5842;52.426;4.886;2022-12-05T15:22:56;13.23;;;6.00;;
11572;SDS011;5842;52.426;4.886;2022-12-05T15:25:25;11.83;;;6.10;;
11572;SDS011;5842;52.426;4.886;2022-12-05T15:27:55;11.80;;;5.97;;
11572;SDS011;5842;52.426;4.886;2022-12-05T15:30:24;8.97;;;5.67;;
11572;SDS011;5842;52.426;4.886;2022-12-05T15:32:52;13.40;;;6.40;;
11572;SDS011;5842;52.426;4.886;2022-12-05T15:35:20;11.40;;;6.07;;
11572;SDS011;5842;52.426;4.886;2022-12-05T15:37:50;11.87;;;6.03;;
11572;SDS011;5842;52.426;4.886;2022-12-05T15:40:22;11.50;;;5.37;;
11572;SDS011;5842;52.426;4.886;2022-12-05T15:42:51;16.00;;;7.30;;
11572;SDS011;5842;52.426;4.886;2022-12-05T15:45:21;11.27;;;6.37;;
11572;SDS011;5842;52.426;4.886;2022-12-05T15:47:50;12.00;;;6.60;;
11572;SDS011;5842;52.426;4.886;2022-12-05T15:50:24;12.70;;;7.00;;
11572;SDS011;5842;52.426;4.886;2022-12-05T15:52:56;13.30;;;6.97;;
11572;SDS011;5842;52.426;4.886;2022-12-05T15:55:30;13.33;;;6.77;;
11572;SDS011;5842;52.426;4.886;2022-12-05T15:58:03;14.43;;;6.67;;